createdAt,value
2024-05-09T00:05:08.396Z,1028
2024-05-09T00:17:08.283Z,1028
2024-05-09T00:29:08.892Z,1028
2024-05-09T00:41:08.191Z,1028
2024-05-09T00:53:08.194Z,1028
2024-05-09T01:05:08.098Z,1028
2024-05-09T01:17:08.241Z,1028
2024-05-09T01:29:08.256Z,1028
2024-05-09T01:41:08.359Z,1028
2024-05-09T01:53:08.754Z,1028
2024-05-09T02:05:08.413Z,1028
2024-05-09T02:17:08.318Z,1028
2024-05-09T02:29:08.178Z,1028
2024-05-09T02:41:08.647Z,1028
2024-05-09T02:53:08.853Z,1028
2024-05-09T03:05:08.373Z,1028
2024-05-09T03:17:08.330Z,1028
2024-05-09T03:29:08.271Z,1028
2024-05-09T03:41:08.453Z,1028
2024-05-09T03:53:08.357Z,1028
2024-05-09T04:05:08.254Z,1028
2024-05-09T04:17:08.438Z,1028
2024-05-09T04:29:08.442Z,1027
2024-05-09T04:41:08.617Z,1027
2024-05-09T04:53:09.202Z,1027
2024-05-09T05:05:08.517Z,1027
2024-05-09T05:17:08.515Z,1028
2024-05-09T05:29:08.550Z,1028
2024-05-09T05:41:08.576Z,1028
2024-05-09T05:53:08.915Z,1028
2024-05-09T06:05:08.493Z,1028
2024-05-09T06:17:08.803Z,1028
2024-05-09T06:29:08.390Z,1029
2024-05-09T06:41:08.579Z,1029
2024-05-09T06:53:08.632Z,1029
2024-05-09T07:05:08.549Z,1029
2024-05-09T07:17:08.749Z,1029
2024-05-09T07:29:08.630Z,1029
2024-05-09T07:41:08.503Z,1030
2024-05-09T07:53:30.672Z,1030
2024-05-09T08:05:08.947Z,1030
2024-05-09T08:17:08.912Z,1030
2024-05-09T08:29:08.562Z,1030
2024-05-09T08:41:08.738Z,1030
2024-05-09T08:53:09.162Z,1030
2024-05-09T09:05:08.780Z,1030
2024-05-09T09:17:08.630Z,1030
2024-05-09T09:29:08.549Z,1030
2024-05-09T09:41:08.736Z,1031
2024-05-09T09:53:08.697Z,1031
2024-05-09T10:05:08.699Z,1031
2024-05-09T10:17:09.122Z,1031
2024-05-09T10:29:08.725Z,1031
2024-05-09T10:41:08.677Z,1031
2024-05-09T10:53:08.679Z,1030
2024-05-09T11:05:08.873Z,1031
2024-05-09T11:17:08.793Z,1030
2024-05-09T11:29:08.731Z,1030
2024-05-09T11:41:08.696Z,1030
2024-05-09T11:53:08.826Z,1031
2024-05-09T12:05:09.180Z,1031
2024-05-09T12:17:08.782Z,1032
2024-05-09T12:29:08.953Z,1032
2024-05-09T12:41:08.873Z,1032
2024-05-09T12:53:08.801Z,1033
2024-05-09T13:05:08.918Z,1033
2024-05-09T13:17:08.872Z,1034
2024-05-09T13:29:08.802Z,1034
2024-05-09T13:41:08.957Z,1034
2024-05-09T13:53:09.218Z,1034
2024-05-09T14:05:09.234Z,1034
2024-05-09T14:17:08.902Z,1035
2024-05-09T14:29:08.967Z,1035
2024-05-09T14:41:08.938Z,1035
2024-05-09T14:53:08.939Z,1034
2024-05-09T15:05:09.416Z,1034
2024-05-09T15:17:08.992Z,1034
2024-05-09T15:29:08.983Z,1034
2024-05-09T15:41:08.910Z,1034
2024-05-09T15:53:09.631Z,1033
2024-05-09T16:05:09.228Z,1033
2024-05-09T16:17:09.032Z,1033
2024-05-09T16:29:08.972Z,1033
2024-05-09T16:41:09.171Z,1032
2024-05-09T16:53:09.297Z,1032
2024-05-09T17:05:09.245Z,1032
2024-05-09T17:17:09.044Z,1031
2024-05-09T17:29:12.132Z,1030
2024-05-09T17:41:09.362Z,1031
2024-05-09T17:53:09.094Z,1030
2024-05-09T18:05:09.691Z,1030
2024-05-09T18:17:09.238Z,1029
2024-05-09T18:29:09.092Z,1029
2024-05-09T18:53:09.208Z,1028
2024-05-09T19:05:09.253Z,1028
2024-05-09T19:17:09.333Z,1028
2024-05-09T19:29:09.310Z,1028
2024-05-09T19:41:09.231Z,1028
2024-05-09T19:53:09.400Z,1027
2024-05-09T20:05:09.512Z,1027
2024-05-09T20:17:09.294Z,1027
2024-05-09T20:29:09.257Z,1027
2024-05-09T20:41:09.371Z,1027
2024-05-09T20:53:09.472Z,1027
2024-05-09T21:05:09.669Z,1027
2024-05-09T21:17:09.567Z,1027
2024-05-09T21:29:09.440Z,1027
2024-05-09T21:41:09.340Z,1027
2024-05-09T21:53:09.518Z,1026
2024-05-09T22:05:09.557Z,1026
2024-05-09T22:17:09.535Z,1026
2024-05-09T22:29:09.686Z,1026
2024-05-09T22:41:09.585Z,1026
2024-05-09T22:53:09.543Z,1026
2024-05-09T23:05:09.745Z,1026
2024-05-09T23:17:09.717Z,1026
2024-05-09T23:29:09.396Z,1026
2024-05-09T23:41:09.918Z,1026
2024-05-09T23:53:11.065Z,1026
